Time;durP1;ratioP1;P1;durP2;ratioP2;P2;SDS_P1;SDS_P2;PMS_P1;PMS_P2;Temp;Humidity;BMP_temperature;BMP_pressure;BME280_temperature;BME280_humidity;BME280_pressure;Samples;Min_cycle;Max_cycle;Signal;HPM_P1;HPM_P2
2023/05/27 00:02:23;;;;;;;25.95;9.43;;;;;;;;;;5015016;28;20063;-58
2023/05/27 00:04:49;;;;;;;25.63;9.43;;;;;;;;;;5031697;28;20033;-57
2023/05/27 00:07:15;;;;;;;20.73;8.43;;;;;;;;;;5032433;28;20041;-57
2023/05/27 00:09:41;;;;;;;21.40;9.20;;;;;;;;;;5032396;28;20492;-54
2023/05/27 00:12:07;;;;;;;24.00;8.98;;;;;;;;;;5032361;28;20052;-59
2023/05/27 00:14:33;;;;;;;23.02;8.80;;;;;;;;;;5031741;28;20093;-55
2023/05/27 00:17:01;;;;;;;21.27;8.77;;;;;;;;;;5032235;28;20093;-58
2023/05/27 00:19:29;;;;;;;23.27;8.88;;;;;;;;;;5032250;28;20080;-56
2023/05/27 00:21:55;;;;;;;20.83;8.93;;;;;;;;;;5032253;28;20022;-57
2023/05/27 00:24:21;;;;;;;19.80;8.80;;;;;;;;;;5031440;28;20272;-53
2023/05/27 00:29:19;;;;;;;24.45;9.43;;;;;;;;;;4989282;28;20113;-58
2023/05/27 00:31:45;;;;;;;23.70;9.18;;;;;;;;;;4992289;28;20490;-59
2023/05/27 00:34:11;;;;;;;22.70;8.15;;;;;;;;;;4992675;28;20066;-61
2023/05/27 00:36:37;;;;;;;26.38;9.32;;;;;;;;;;4993379;28;20034;-62
2023/05/27 00:39:05;;;;;;;28.15;9.02;;;;;;;;;;5010429;28;20041;-60
2023/05/27 00:41:31;;;;;;;25.37;9.73;;;;;;;;;;4995043;28;20022;-61
2023/05/27 00:43:57;;;;;;;23.63;9.23;;;;;;;;;;5012579;28;20042;-62
2023/05/27 00:46:23;;;;;;;24.55;9.13;;;;;;;;;;5013071;28;20458;-61
2023/05/27 00:48:49;;;;;;;23.52;9.50;;;;;;;;;;4993863;28;20030;-61
2023/05/27 00:51:16;;;;;;;24.80;9.60;;;;;;;;;;5012689;28;20109;-58
2023/05/27 00:53:43;;;;;;;25.50;8.85;;;;;;;;;;5012732;28;20363;-62
2023/05/27 00:56:09;;;;;;;21.83;9.35;;;;;;;;;;5012008;28;20091;-57
2023/05/27 00:58:38;;;;;;;26.27;10.30;;;;;;;;;;5012566;28;20030;-57
2023/05/27 01:01:05;;;;;;;24.50;9.57;;;;;;;;;;5011884;28;20041;-61
2023/05/27 01:03:34;;;;;;;24.83;9.02;;;;;;;;;;5012226;28;20069;-60
2023/05/27 01:06:12;;;;;;;22.98;9.05;;;;;;;;;;5011768;28;20034;-63
2023/05/27 01:08:42;;;;;;;24.52;9.77;;;;;;;;;;5011221;28;20045;-60
2023/05/27 01:11:10;;;;;;;25.98;9.63;;;;;;;;;;5012074;28;20034;-59
2023/05/27 01:13:40;;;;;;;26.00;9.20;;;;;;;;;;5011649;28;20442;-60
2023/05/27 01:16:10;;;;;;;20.23;8.35;;;;;;;;;;5010629;28;20394;-57
2023/05/27 01:18:36;;;;;;;20.35;9.27;;;;;;;;;;5010995;28;20018;-60
2023/05/27 01:21:06;;;;;;;24.23;8.43;;;;;;;;;;5011678;28;20026;-59
2023/05/27 01:23:32;;;;;;;22.90;9.88;;;;;;;;;;4993589;28;20022;-58
2023/05/27 01:25:59;;;;;;;28.75;9.95;;;;;;;;;;5010771;28;20041;-60
2023/05/27 01:28:25;;;;;;;22.38;8.65;;;;;;;;;;5010679;28;20029;-60
2023/05/27 01:30:55;;;;;;;24.52;9.35;;;;;;;;;;5011341;28;20509;-61
2023/05/27 01:33:25;;;;;;;26.05;9.63;;;;;;;;;;5011019;28;20367;-61
2023/05/27 01:35:56;;;;;;;21.42;8.73;;;;;;;;;;5010326;28;20079;-60
2023/05/27 01:38:25;;;;;;;23.08;9.10;;;;;;;;;;5010819;28;20026;-59
2023/05/27 01:40:51;;;;;;;20.98;8.55;;;;;;;;;;5012024;28;20115;-59
2023/05/27 01:43:18;;;;;;;25.75;9.30;;;;;;;;;;4994645;28;20026;-58
2023/05/27 01:45:44;;;;;;;65.53;40.55;;;;;;;;;;5010957;28;20033;-62
2023/05/27 01:48:10;;;;;;;29.05;16.00;;;;;;;;;;5013448;28;20160;-55
2023/05/27 01:50:37;;;;;;;39.00;21.65;;;;;;;;;;5015002;28;20025;-58
2023/05/27 01:53:05;;;;;;;35.05;14.07;;;;;;;;;;5014484;28;20029;-61
2023/05/27 01:55:31;;;;;;;28.55;11.73;;;;;;;;;;5014758;28;20061;-59
2023/05/27 01:57:57;;;;;;;26.85;8.88;;;;;;;;;;4997566;28;20030;-60
2023/05/27 02:00:24;;;;;;;27.63;11.40;;;;;;;;;;5014124;28;20119;-57
2023/05/27 02:02:50;;;;;;;21.73;9.07;;;;;;;;;;4997722;28;20097;-59
2023/05/27 02:05:16;;;;;;;27.88;10.35;;;;;;;;;;5014709;28;20022;-60
2023/05/27 02:07:42;;;;;;;27.63;9.32;;;;;;;;;;4996278;28;20026;-55
2023/05/27 02:10:08;;;;;;;26.25;9.45;;;;;;;;;;5013891;28;20103;-59
2023/05/27 02:12:34;;;;;;;20.45;8.85;;;;;;;;;;5017968;28;20036;-58
2023/05/27 02:15:01;;;;;;;23.45;8.75;;;;;;;;;;5034088;28;20030;-60
2023/05/27 02:17:27;;;;;;;22.45;8.73;;;;;;;;;;5034789;28;20022;-60
2023/05/27 02:19:54;;;;;;;23.48;8.68;;;;;;;;;;5033660;28;20030;-61
2023/05/27 02:22:20;;;;;;;22.73;9.93;;;;;;;;;;5016031;28;20033;-61
2023/05/27 02:24:46;;;;;;;29.05;9.95;;;;;;;;;;5033903;28;20041;-60
2023/05/27 02:27:13;;;;;;;23.02;9.27;;;;;;;;;;5033740;28;20041;-56
2023/05/27 02:29:39;;;;;;;23.30;8.90;;;;;;;;;;5031711;28;20033;-60
2023/05/27 02:32:06;;;;;;;24.60;8.68;;;;;;;;;;5015377;28;20027;-62
2023/05/27 02:34:36;;;;;;;25.08;9.60;;;;;;;;;;5031236;28;20100;-61
2023/05/27 02:37:02;;;;;;;23.15;8.20;;;;;;;;;;5032156;28;20051;-61
2023/05/27 02:39:28;;;;;;;25.33;8.98;;;;;;;;;;5032343;28;20028;-57
2023/05/27 02:41:54;;;;;;;23.52;9.63;;;;;;;;;;5034381;28;20032;-60
2023/05/27 02:44:20;;;;;;;24.73;9.75;;;;;;;;;;5033344;28;20029;-62
2023/05/27 02:46:46;;;;;;;21.95;9.07;;;;;;;;;;5034291;28;20033;-60
2023/05/27 02:49:12;;;;;;;27.45;9.02;;;;;;;;;;5032312;28;20545;-61
2023/05/27 02:51:38;;;;;;;24.23;8.52;;;;;;;;;;5032640;28;20044;-60
2023/05/27 02:54:04;;;;;;;23.73;9.63;;;;;;;;;;5031412;28;20060;-60
2023/05/27 02:56:30;;;;;;;22.98;8.73;;;;;;;;;;5015318;28;20031;-59
2023/05/27 02:58:56;;;;;;;23.08;8.80;;;;;;;;;;5015901;28;20017;-61
2023/05/27 03:01:22;;;;;;;22.08;8.27;;;;;;;;;;5016142;28;20022;-59
2023/05/27 03:03:48;;;;;;;24.42;9.23;;;;;;;;;;5015761;28;20022;-60
2023/05/27 03:06:15;;;;;;;22.92;8.77;;;;;;;;;;5031405;28;20017;-59
2023/05/27 03:08:41;;;;;;;22.95;8.77;;;;;;;;;;5031726;28;20057;-57
2023/05/27 03:11:07;;;;;;;23.77;8.65;;;;;;;;;;5032513;28;20022;-60
2023/05/27 03:13:33;;;;;;;23.00;8.32;;;;;;;;;;5033261;28;20473;-56
2023/05/27 03:15:59;;;;;;;26.15;8.90;;;;;;;;;;5031870;28;20116;-62
2023/05/27 03:18:25;;;;;;;24.95;8.95;;;;;;;;;;5032087;28;20124;-61
2023/05/27 03:20:51;;;;;;;26.38;9.02;;;;;;;;;;5032339;28;20025;-60
2023/05/27 03:23:17;;;;;;;25.75;8.63;;;;;;;;;;5015783;28;20022;-59
2023/05/27 03:25:44;;;;;;;26.30;8.93;;;;;;;;;;5032475;28;20365;-60
2023/05/27 03:28:10;;;;;;;24.63;10.32;;;;;;;;;;4995008;28;1089243;-58
2023/05/27 03:30:38;;;;;;;23.70;8.48;;;;;;;;;;5031478;28;20033;-61
2023/05/27 03:33:04;;;;;;;21.23;8.38;;;;;;;;;;5033646;28;20113;-59
2023/05/27 03:35:29;;;;;;;24.90;8.27;;;;;;;;;;5031912;28;20414;-59
2023/05/27 03:37:55;;;;;;;23.80;8.60;;;;;;;;;;5015424;28;20025;-54
2023/05/27 03:40:21;;;;;;;22.95;8.05;;;;;;;;;;5032317;28;20346;-58
2023/05/27 03:42:47;;;;;;;24.95;7.97;;;;;;;;;;5033738;28;20029;-59
2023/05/27 03:45:13;;;;;;;28.25;9.90;;;;;;;;;;5031977;28;20093;-60
2023/05/27 03:47:39;;;;;;;24.35;8.80;;;;;;;;;;5034095;28;20037;-60
2023/05/27 03:50:06;;;;;;;20.55;7.72;;;;;;;;;;5016310;28;20508;-58
2023/05/27 03:52:32;;;;;;;27.45;8.73;;;;;;;;;;5033813;28;20056;-53
2023/05/27 03:54:58;;;;;;;26.52;8.27;;;;;;;;;;5031495;28;20111;-59
2023/05/27 03:57:24;;;;;;;27.65;9.05;;;;;;;;;;5033033;28;20120;-61
2023/05/27 03:59:50;;;;;;;25.00;8.77;;;;;;;;;;5031860;28;20481;-61
2023/05/27 04:02:16;;;;;;;27.10;9.57;;;;;;;;;;5033901;28;20018;-61
2023/05/27 04:04:42;;;;;;;23.63;8.55;;;;;;;;;;5032057;28;20446;-59
2023/05/27 04:07:08;;;;;;;25.38;9.18;;;;;;;;;;5014507;28;20120;-58
2023/05/27 04:09:34;;;;;;;27.85;9.02;;;;;;;;;;5032888;28;20021;-62
2023/05/27 04:12:00;;;;;;;26.35;9.82;;;;;;;;;;5032096;28;20395;-57
2023/05/27 04:14:26;;;;;;;24.50;8.75;;;;;;;;;;5032420;28;20021;-60
2023/05/27 04:16:52;;;;;;;25.00;9.98;;;;;;;;;;5032879;28;20029;-56
2023/05/27 04:19:18;;;;;;;29.23;9.05;;;;;;;;;;5032508;28;20488;-61
2023/05/27 04:21:45;;;;;;;24.25;9.45;;;;;;;;;;5033065;28;20029;-62
2023/05/27 04:24:10;;;;;;;24.48;8.95;;;;;;;;;;5031510;28;20052;-61
2023/05/27 04:26:37;;;;;;;30.27;9.43;;;;;;;;;;5031944;28;20532;-62
2023/05/27 04:29:04;;;;;;;27.58;8.98;;;;;;;;;;5032060;28;20030;-52
2023/05/27 04:31:30;;;;;;;28.13;8.73;;;;;;;;;;5014664;28;20502;-59
2023/05/27 04:33:56;;;;;;;24.45;9.05;;;;;;;;;;5032579;28;20021;-53
2023/05/27 04:36:24;;;;;;;26.70;9.85;;;;;;;;;;5032495;28;20029;-56
2023/05/27 04:38:50;;;;;;;;;;;;;;;;;;5014378;28;20104;-60
2023/05/27 04:41:16;;;;;;;29.23;10.00;;;;;;;;;;5030969;28;20436;-60
2023/05/27 04:43:43;;;;;;;21.63;9.23;;;;;;;;;;5033083;28;20059;-61
2023/05/27 04:46:09;;;;;;;27.33;9.35;;;;;;;;;;5031696;28;20022;-60
2023/05/27 04:48:35;;;;;;;23.33;9.27;;;;;;;;;;5031749;28;20025;-60
2023/05/27 04:51:01;;;;;;;24.27;9.15;;;;;;;;;;5032142;28;20057;-61
2023/05/27 04:53:27;;;;;;;27.65;10.10;;;;;;;;;;5030887;28;20033;-59
2023/05/27 04:55:54;;;;;;;28.92;9.88;;;;;;;;;;5030925;28;20022;-60
2023/05/27 04:58:20;;;;;;;28.73;10.15;;;;;;;;;;5013033;28;20033;-59
2023/05/27 05:00:49;;;;;;;26.10;9.15;;;;;;;;;;5030611;28;20478;-60
2023/05/27 05:03:21;;;;;;;27.17;9.95;;;;;;;;;;5032271;28;20096;-57
2023/05/27 05:05:51;;;;;;;25.63;9.02;;;;;;;;;;5013540;28;20068;-59
2023/05/27 05:08:18;;;;;;;20.40;9.65;;;;;;;;;;5031112;28;20445;-58
2023/05/27 05:10:43;;;;;;;23.02;9.32;;;;;;;;;;5030988;28;20454;-61
2023/05/27 05:13:09;;;;;;;21.25;9.90;;;;;;;;;;5032174;28;20025;-61
2023/05/27 05:15:36;;;;;;;22.40;9.18;;;;;;;;;;5012756;28;20033;-59
2023/05/27 05:18:02;;;;;;;26.42;9.00;;;;;;;;;;5031711;28;20033;-56
2023/05/27 05:20:28;;;;;;;27.52;9.50;;;;;;;;;;5031611;28;20026;-60
2023/05/27 05:22:55;;;;;;;21.92;8.80;;;;;;;;;;5035885;28;20033;-59
2023/05/27 05:25:21;;;;;;;28.85;10.68;;;;;;;;;;5016761;28;20493;-57
2023/05/27 05:27:47;;;;;;;26.30;10.35;;;;;;;;;;5036080;28;20448;-60
2023/05/27 05:30:13;;;;;;;28.42;10.55;;;;;;;;;;5034934;28;20473;-58
2023/05/27 05:32:39;;;;;;;19.35;9.80;;;;;;;;;;5035447;28;20029;-59
2023/05/27 05:35:06;;;;;;;23.48;9.20;;;;;;;;;;5035071;28;20032;-60
2023/05/27 05:37:32;;;;;;;28.10;11.05;;;;;;;;;;5036872;28;20017;-59
2023/05/27 05:39:57;;;;;;;25.38;8.90;;;;;;;;;;5034705;28;20025;-60
2023/05/27 05:42:24;;;;;;;23.00;9.05;;;;;;;;;;5036531;28;20029;-61
2023/05/27 05:44:52;;;;;;;25.80;9.90;;;;;;;;;;5012058;28;20060;-54
2023/05/27 05:47:18;;;;;;;28.77;9.25;;;;;;;;;;5012380;28;20033;-60
2023/05/27 05:49:44;;;;;;;21.80;9.27;;;;;;;;;;5014226;28;20371;-62
2023/05/27 05:52:10;;;;;;;27.60;15.48;;;;;;;;;;5015362;28;20041;-61
2023/05/27 05:54:36;;;;;;;22.25;9.63;;;;;;;;;;5002954;28;20023;-57
2023/05/27 05:57:02;;;;;;;27.95;9.45;;;;;;;;;;4994296;28;20038;-56
2023/05/27 05:59:28;;;;;;;22.70;9.43;;;;;;;;;;4994880;28;20022;-61
2023/05/27 06:01:54;;;;;;;27.33;9.85;;;;;;;;;;4996885;28;20050;-60
2023/05/27 06:04:20;;;;;;;22.85;8.95;;;;;;;;;;5014048;28;20044;-61
2023/05/27 06:06:46;;;;;;;24.52;8.93;;;;;;;;;;4996567;28;20030;-60
2023/05/27 06:09:12;;;;;;;22.73;9.50;;;;;;;;;;4995970;28;20393;-59
2023/05/27 06:11:38;;;;;;;27.48;9.57;;;;;;;;;;4996792;28;20030;-62
2023/05/27 06:14:05;;;;;;;21.08;8.95;;;;;;;;;;5014588;28;20026;-61
2023/05/27 06:16:31;;;;;;;28.17;9.68;;;;;;;;;;4997101;28;20048;-61
2023/05/27 06:18:57;;;;;;;26.88;9.80;;;;;;;;;;5012336;28;20022;-60
2023/05/27 06:21:23;;;;;;;23.40;10.10;;;;;;;;;;4995343;28;20028;-58
2023/05/27 06:23:48;;;;;;;29.02;9.57;;;;;;;;;;4978046;28;20025;-60
2023/05/27 06:26:15;;;;;;;30.65;10.30;;;;;;;;;;4994084;28;20030;-59
2023/05/27 06:28:41;;;;;;;26.95;11.50;;;;;;;;;;4995535;28;20038;-58
2023/05/27 06:31:07;;;;;;;22.23;10.27;;;;;;;;;;4994383;28;20395;-57
2023/05/27 06:33:33;;;;;;;25.63;9.35;;;;;;;;;;4993590;28;20101;-61
2023/05/27 06:35:59;;;;;;;23.65;9.63;;;;;;;;;;4993830;28;20018;-61
2023/05/27 06:38:26;;;;;;;24.90;10.55;;;;;;;;;;4993945;28;20029;-54
2023/05/27 06:40:52;;;;;;;26.90;10.32;;;;;;;;;;4994134;28;20026;-59
2023/05/27 06:43:18;;;;;;;25.60;9.90;;;;;;;;;;4994766;28;20053;-57
2023/05/27 06:45:44;;;;;;;21.75;9.40;;;;;;;;;;4994797;28;20670;-59
2023/05/27 06:48:10;;;;;;;26.60;11.30;;;;;;;;;;5013783;28;20400;-51
2023/05/27 06:50:36;;;;;;;23.73;10.13;;;;;;;;;;5013120;28;20446;-51
2023/05/27 06:53:02;;;;;;;27.02;9.65;;;;;;;;;;5012871;28;20060;-52
2023/05/27 06:55:27;;;;;;;33.08;13.32;;;;;;;;;;5011836;28;20390;-54
2023/05/27 06:57:53;;;;;;;24.42;10.15;;;;;;;;;;4994864;28;20124;-52
2023/05/27 07:00:19;;;;;;;29.75;14.43;;;;;;;;;;5012493;28;20033;-57
2023/05/27 07:02:45;;;;;;;27.75;11.88;;;;;;;;;;4995104;28;20029;-54
2023/05/27 07:05:11;;;;;;;33.75;11.98;;;;;;;;;;5012016;28;20401;-52
2023/05/27 07:07:37;;;;;;;29.75;13.10;;;;;;;;;;5012260;28;20053;-51
2023/05/27 07:10:03;;;;;;;28.77;10.25;;;;;;;;;;5012038;28;20375;-54
2023/05/27 07:12:29;;;;;;;25.77;11.43;;;;;;;;;;5012295;28;20141;-57
2023/05/27 07:14:55;;;;;;;24.75;10.15;;;;;;;;;;5011522;28;20105;-56
2023/05/27 07:17:21;;;;;;;27.77;10.98;;;;;;;;;;5012196;28;20092;-54
2023/05/27 07:19:47;;;;;;;26.70;10.40;;;;;;;;;;5011922;28;20068;-57
2023/05/27 07:22:13;;;;;;;26.27;10.52;;;;;;;;;;5011963;28;20527;-57
2023/05/27 07:24:39;;;;;;;24.92;10.32;;;;;;;;;;4994159;28;20207;-55
2023/05/27 07:27:06;;;;;;;28.27;11.05;;;;;;;;;;5012144;28;20041;-49
2023/05/27 07:29:32;;;;;;;25.92;10.20;;;;;;;;;;5012520;28;20033;-52
2023/05/27 07:31:58;;;;;;;28.98;12.05;;;;;;;;;;4994278;28;20132;-51
2023/05/27 07:34:24;;;;;;;28.70;11.10;;;;;;;;;;5011203;28;20083;-55
2023/05/27 07:36:50;;;;;;;28.58;10.40;;;;;;;;;;5011919;28;20022;-54
2023/05/27 07:39:16;;;;;;;25.40;9.50;;;;;;;;;;5011450;28;20022;-53
2023/05/27 07:41:42;;;;;;;28.70;15.27;;;;;;;;;;5011267;28;20367;-52
2023/05/27 07:44:08;;;;;;;25.70;10.95;;;;;;;;;;5010599;28;20029;-53
2023/05/27 07:46:38;;;;;;;28.02;11.15;;;;;;;;;;5009673;28;20095;-57
2023/05/27 07:49:05;;;;;;;24.13;10.43;;;;;;;;;;5011720;28;20036;-54
2023/05/27 07:51:31;;;;;;;24.85;10.93;;;;;;;;;;4994112;28;20088;-55
2023/05/27 07:53:57;;;;;;;25.83;10.95;;;;;;;;;;5011290;28;20026;-56
2023/05/27 07:56:23;;;;;;;24.00;11.38;;;;;;;;;;5011760;28;20026;-54
2023/05/27 07:58:49;;;;;;;26.40;12.65;;;;;;;;;;5011807;28;20088;-54
2023/05/27 08:01:15;;;;;;;24.92;11.32;;;;;;;;;;5011805;28;20029;-55
2023/05/27 08:03:41;;;;;;;28.52;11.38;;;;;;;;;;5010894;28;20026;-62
2023/05/27 08:06:14;;;;;;;26.98;11.88;;;;;;;;;;5086777;27;19917;-60
2023/05/27 08:08:40;;;;;;;26.98;11.45;;;;;;;;;;5087889;28;20028;-59
2023/05/27 08:11:06;;;;;;;25.15;11.18;;;;;;;;;;5087736;28;20051;-59
2023/05/27 08:13:32;;;;;;;21.65;9.52;;;;;;;;;;5086400;28;20020;-62
2023/05/27 08:15:58;;;;;;;22.98;11.57;;;;;;;;;;5087131;28;20032;-60
2023/05/27 08:18:24;;;;;;;24.75;10.55;;;;;;;;;;5086591;28;20071;-59
2023/05/27 08:20:50;;;;;;;28.25;11.32;;;;;;;;;;5087694;28;20103;-61
2023/05/27 08:23:16;;;;;;;25.85;12.15;;;;;;;;;;5087987;28;20417;-60
2023/05/27 08:25:42;;;;;;;27.55;11.10;;;;;;;;;;5086626;28;20033;-61
2023/05/27 08:28:08;;;;;;;24.98;12.13;;;;;;;;;;5087787;28;20052;-56
2023/05/27 08:30:34;;;;;;;26.58;10.65;;;;;;;;;;5087726;28;20048;-62
2023/05/27 08:33:00;;;;;;;23.98;11.23;;;;;;;;;;5087536;28;20056;-57
2023/05/27 08:35:26;;;;;;;25.45;11.82;;;;;;;;;;5086501;28;20397;-62
2023/05/27 08:37:52;;;;;;;21.20;10.55;;;;;;;;;;5087122;28;20036;-61
2023/05/27 08:40:19;;;;;;;26.27;10.38;;;;;;;;;;5087157;28;20025;-58
2023/05/27 08:42:46;;;;;;;24.60;11.48;;;;;;;;;;5085748;28;20028;-60
2023/05/27 08:45:12;;;;;;;23.42;10.70;;;;;;;;;;5086114;28;20025;-57
2023/05/27 08:47:39;;;;;;;24.27;11.38;;;;;;;;;;5086900;28;20070;-59
2023/05/27 08:50:07;;;;;;;26.10;11.88;;;;;;;;;;5086788;28;20112;-59
2023/05/27 08:52:33;;;;;;;23.63;11.02;;;;;;;;;;5086823;28;20025;-59
2023/05/27 08:54:59;;;;;;;26.02;11.30;;;;;;;;;;5085766;28;20039;-56
2023/05/27 08:57:30;;;;;;;22.38;11.00;;;;;;;;;;5086699;28;20094;-61
2023/05/27 08:59:56;;;;;;;25.35;11.52;;;;;;;;;;5086952;28;20020;-60
2023/05/27 09:02:23;;;;;;;21.13;11.50;;;;;;;;;;5086634;28;20032;-60
2023/05/27 09:04:49;;;;;;;25.25;12.43;;;;;;;;;;5094706;28;20493;-56
2023/05/27 09:07:16;;;;;;;27.10;11.60;;;;;;;;;;5107369;28;20028;-58
2023/05/27 09:09:43;;;;;;;24.50;10.93;;;;;;;;;;5106892;28;20441;-58
2023/05/27 09:12:09;;;;;;;21.52;11.13;;;;;;;;;;5107102;28;20077;-59
2023/05/27 09:14:39;;;;;;;23.85;11.00;;;;;;;;;;5106333;28;20031;-60
2023/05/27 09:17:06;;;;;;;26.52;11.02;;;;;;;;;;5096255;28;20490;-58
2023/05/27 09:19:32;;;;;;;23.73;11.48;;;;;;;;;;5093402;28;20034;-56
2023/05/27 09:21:58;;;;;;;36.30;12.70;;;;;;;;;;5092997;28;20120;-59
2023/05/27 09:24:24;;;;;;;23.20;11.05;;;;;;;;;;5088264;28;20039;-60
2023/05/27 09:26:56;;;;;;;25.17;11.52;;;;;;;;;;5087388;28;20099;-58
2023/05/27 09:29:25;;;;;;;25.13;12.07;;;;;;;;;;5081420;28;20028;-59
2023/05/27 09:31:55;;;;;;;28.13;12.70;;;;;;;;;;5090327;28;20016;-59
2023/05/27 09:34:21;;;;;;;26.83;12.10;;;;;;;;;;5091917;28;20475;-61
2023/05/27 09:36:50;;;;;;;21.70;11.73;;;;;;;;;;5092504;28;20036;-62
2023/05/27 09:39:22;;;;;;;23.95;12.43;;;;;;;;;;5092321;28;20028;-59
2023/05/27 09:41:53;;;;;;;21.02;11.98;;;;;;;;;;5092525;28;20023;-60
2023/05/27 09:44:19;;;;;;;20.92;11.77;;;;;;;;;;5092027;28;20024;-58
2023/05/27 09:46:46;;;;;;;23.88;13.65;;;;;;;;;;5090942;28;20028;-57
2023/05/27 09:49:15;;;;;;;26.30;12.27;;;;;;;;;;5087836;28;20028;-61
2023/05/27 09:51:41;;;;;;;21.23;12.30;;;;;;;;;;5076272;28;20103;-59
2023/05/27 09:54:08;;;;;;;25.40;12.55;;;;;;;;;;5070488;28;20449;-59
2023/05/27 09:56:34;;;;;;;23.40;12.30;;;;;;;;;;5072244;28;20021;-61
2023/05/27 09:59:01;;;;;;;22.20;11.70;;;;;;;;;;5071107;28;20021;-60
2023/05/27 10:01:29;;;;;;;22.50;13.25;;;;;;;;;;5072275;28;20029;-60
2023/05/27 10:03:56;;;;;;;22.40;12.43;;;;;;;;;;5072121;28;20357;-60
2023/05/27 10:06:25;;;;;;;21.35;11.98;;;;;;;;;;5072217;28;20058;-59
2023/05/27 10:08:58;;;;;;;24.00;12.50;;;;;;;;;;5072095;28;20491;-59
2023/05/27 10:11:26;;;;;;;24.30;12.90;;;;;;;;;;5072054;28;20061;-60
2023/05/27 10:13:52;;;;;;;20.77;13.00;;;;;;;;;;5070172;28;20024;-56
2023/05/27 10:16:21;;;;;;;23.13;12.50;;;;;;;;;;5069734;28;20408;-61
2023/05/27 10:18:52;;;;;;;27.58;13.60;;;;;;;;;;5071537;28;20092;-55
2023/05/27 10:21:23;;;;;;;23.95;12.65;;;;;;;;;;5071513;28;20031;-58
2023/05/27 10:24:02;;;;;;;23.48;12.77;;;;;;;;;;5071219;28;20074;-62
2023/05/27 10:26:33;;;;;;;29.98;14.25;;;;;;;;;;5071227;28;20027;-60
2023/05/27 10:29:08;;;;;;;23.42;13.23;;;;;;;;;;5070513;28;20056;-60
2023/05/27 10:31:36;;;;;;;24.85;13.00;;;;;;;;;;5071388;28;20028;-60
2023/05/27 10:34:04;;;;;;;25.48;13.13;;;;;;;;;;5070649;28;20388;-61
2023/05/27 10:36:32;;;;;;;30.60;13.93;;;;;;;;;;5071176;28;20035;-60
2023/05/27 10:38:58;;;;;;;24.20;13.80;;;;;;;;;;5071128;28;20074;-60
2023/05/27 10:41:25;;;;;;;22.60;12.90;;;;;;;;;;5071464;28;20020;-58
2023/05/27 10:44:00;;;;;;;21.20;12.70;;;;;;;;;;5071051;28;20461;-56
2023/05/27 10:46:26;;;;;;;28.10;14.77;;;;;;;;;;5078055;28;20022;-60
2023/05/27 10:48:52;;;;;;;27.85;13.60;;;;;;;;;;5091092;28;20020;-61
2023/05/27 10:51:18;;;;;;;25.42;13.48;;;;;;;;;;5091148;28;20375;-60
2023/05/27 10:53:44;;;;;;;23.20;13.20;;;;;;;;;;5091184;28;20123;-56
2023/05/27 10:56:10;;;;;;;26.05;13.77;;;;;;;;;;5090688;28;20512;-62
2023/05/27 10:58:37;;;;;;;21.20;13.05;;;;;;;;;;5091087;28;20036;-59
2023/05/27 11:01:14;;;;;;;25.65;13.23;;;;;;;;;;5090667;28;20069;-60
2023/05/27 11:03:49;;;;;;;20.80;13.27;;;;;;;;;;5090413;28;20499;-59
2023/05/27 11:06:16;;;;;;;21.30;13.27;;;;;;;;;;5090790;28;20085;-61
2023/05/27 11:08:42;;;;;;;22.17;14.35;;;;;;;;;;5090844;28;20439;-58
2023/05/27 11:11:08;;;;;;;24.48;13.82;;;;;;;;;;5089557;28;20464;-60
2023/05/27 11:13:34;;;;;;;23.52;13.90;;;;;;;;;;5090709;28;20031;-56
2023/05/27 11:16:01;;;;;;;21.95;13.98;;;;;;;;;;5090184;28;20024;-58
2023/05/27 11:18:40;;;;;;;28.52;14.18;;;;;;;;;;5090759;28;20166;-61
2023/05/27 11:21:07;;;;;;;27.17;14.25;;;;;;;;;;5089855;28;20044;-58
2023/05/27 11:23:34;;;;;;;24.80;14.48;;;;;;;;;;5090868;28;20468;-56
2023/05/27 11:26:00;;;;;;;22.77;13.73;;;;;;;;;;5090074;28;20372;-59
2023/05/27 11:28:26;;;;;;;22.05;13.23;;;;;;;;;;5090522;28;20020;-60
2023/05/27 11:30:52;;;;;;;25.25;13.85;;;;;;;;;;5090692;28;20369;-57
2023/05/27 11:33:18;;;;;;;23.40;14.05;;;;;;;;;;5089571;28;20023;-60
2023/05/27 11:35:44;;;;;;;22.95;14.30;;;;;;;;;;5089711;28;20086;-59
2023/05/27 11:38:19;;;;;;;20.65;14.57;;;;;;;;;;5090802;28;20030;-57
2023/05/27 11:40:45;;;;;;;20.65;13.77;;;;;;;;;;5090289;28;20032;-58
2023/05/27 11:43:17;;;;;;;22.08;14.23;;;;;;;;;;5089315;28;20051;-59
2023/05/27 11:45:43;;;;;;;20.80;14.30;;;;;;;;;;5089626;28;20027;-54
2023/05/27 11:48:11;;;;;;;23.60;15.32;;;;;;;;;;5090243;28;20024;-57
2023/05/27 11:50:37;;;;;;;21.60;13.97;;;;;;;;;;5090681;28;20020;-60
2023/05/27 11:53:03;;;;;;;23.60;14.98;;;;;;;;;;5090567;28;20028;-62
2023/05/27 11:55:31;;;;;;;22.10;14.38;;;;;;;;;;5089582;28;20031;-59
2023/05/27 11:57:57;;;;;;;23.95;16.77;;;;;;;;;;5090093;28;20028;-60
2023/05/27 12:00:23;;;;;;;21.73;14.15;;;;;;;;;;5090261;28;20115;-57
2023/05/27 12:02:49;;;;;;;23.85;15.13;;;;;;;;;;5089916;28;20365;-61
2023/05/27 12:05:16;;;;;;;23.35;14.95;;;;;;;;;;5077916;28;20035;-57
2023/05/27 12:07:44;;;;;;;27.30;15.13;;;;;;;;;;5083795;28;20039;-61
2023/05/27 12:10:10;;;;;;;23.38;14.63;;;;;;;;;;5089826;28;20020;-57
2023/05/27 12:12:37;;;;;;;23.80;14.82;;;;;;;;;;5090048;28;20059;-59
2023/05/27 12:15:04;;;;;;;21.17;13.93;;;;;;;;;;5089077;28;20066;-57
2023/05/27 12:17:29;;;;;;;23.98;15.15;;;;;;;;;;5089582;28;20028;-62
2023/05/27 12:19:55;;;;;;;22.33;15.30;;;;;;;;;;5088419;28;20021;-60
2023/05/27 12:22:23;;;;;;;21.05;14.88;;;;;;;;;;5086138;28;20024;-59
2023/05/27 12:24:51;;;;;;;20.95;14.77;;;;;;;;;;5080930;28;20076;-61
2023/05/27 12:27:17;;;;;;;20.65;14.30;;;;;;;;;;5092498;22;20073;-60
2023/05/27 12:29:43;;;;;;;21.02;13.85;;;;;;;;;;5048904;28;20560;-59
2023/05/27 12:32:09;;;;;;;22.33;15.35;;;;;;;;;;5032376;28;20104;-60
2023/05/27 12:34:35;;;;;;;20.90;14.45;;;;;;;;;;5031347;28;20013;-58
2023/05/27 12:37:01;;;;;;;22.85;15.02;;;;;;;;;;5048414;28;20098;-60
2023/05/27 12:39:27;;;;;;;22.15;14.27;;;;;;;;;;5050150;28;20546;-62
2023/05/27 12:41:53;;;;;;;21.15;14.43;;;;;;;;;;5050781;28;20033;-60
2023/05/27 12:44:19;;;;;;;23.10;14.27;;;;;;;;;;5049488;28;20048;-61
2023/05/27 12:46:45;;;;;;;22.60;15.63;;;;;;;;;;5028628;28;20641;-60
2023/05/27 12:49:11;;;;;;;19.30;13.85;;;;;;;;;;5050403;28;20033;-62
2023/05/27 12:51:38;;;;;;;23.00;14.32;;;;;;;;;;5034270;28;20044;-59
2023/05/27 12:54:04;;;;;;;21.65;14.30;;;;;;;;;;5052820;28;20047;-60
2023/05/27 12:56:30;;;;;;;19.55;13.82;;;;;;;;;;4682198;28;9999977;-60
2023/05/27 12:58:56;;;;;;;21.15;14.45;;;;;;;;;;5050304;28;20424;-58
2023/05/27 13:01:23;;;;;;;20.80;14.45;;;;;;;;;;5032522;28;20029;-61
2023/05/27 13:03:49;;;;;;;20.85;14.38;;;;;;;;;;5032965;28;20032;-61
2023/05/27 13:06:15;;;;;;;18.83;12.88;;;;;;;;;;5050101;28;20112;-62
2023/05/27 13:08:41;;;;;;;18.85;13.85;;;;;;;;;;5050638;28;20480;-62
2023/05/27 13:11:07;;;;;;;20.50;13.70;;;;;;;;;;5032630;28;20040;-62
2023/05/27 13:13:33;;;;;;;21.35;14.85;;;;;;;;;;5032795;28;20504;-61
2023/05/27 13:15:59;;;;;;;21.48;14.57;;;;;;;;;;5050001;28;20040;-61
2023/05/27 13:18:25;;;;;;;20.20;14.40;;;;;;;;;;5050670;28;20029;-62
2023/05/27 13:20:51;;;;;;;21.65;14.35;;;;;;;;;;5050411;28;20033;-63
2023/05/27 13:23:17;;;;;;;20.88;14.35;;;;;;;;;;5050850;28;20102;-62
2023/05/27 13:25:43;;;;;;;20.90;14.88;;;;;;;;;;5049931;28;20087;-62
2023/05/27 13:28:09;;;;;;;21.77;15.02;;;;;;;;;;5050483;28;20036;-63
2023/05/27 13:30:35;;;;;;;21.23;14.35;;;;;;;;;;5050185;28;20029;-62
2023/05/27 13:33:01;;;;;;;20.10;14.65;;;;;;;;;;5050237;28;20456;-58
2023/05/27 13:35:27;;;;;;;19.10;14.43;;;;;;;;;;5049697;28;20020;-62
2023/05/27 13:37:54;;;;;;;20.40;15.10;;;;;;;;;;5050193;28;20151;-61
2023/05/27 13:40:20;;;;;;;20.98;15.75;;;;;;;;;;5061800;28;20086;-61
2023/05/27 13:42:46;;;;;;;21.05;15.13;;;;;;;;;;5038178;28;20041;-58
2023/05/27 13:45:12;;;;;;;19.83;13.82;;;;;;;;;;5049352;28;20024;-60
2023/05/27 13:47:40;;;;;;;19.83;14.38;;;;;;;;;;5045602;28;20028;-62
2023/05/27 13:50:06;;;;;;;20.92;15.10;;;;;;;;;;5040279;28;20033;-59
2023/05/27 13:52:32;;;;;;;20.35;14.95;;;;;;;;;;5049813;28;20501;-60
2023/05/27 13:54:58;;;;;;;20.83;15.48;;;;;;;;;;5048806;28;20028;-61
2023/05/27 13:57:24;;;;;;;19.10;14.30;;;;;;;;;;5032128;28;20020;-61
2023/05/27 13:59:50;;;;;;;22.77;17.48;;;;;;;;;;5032007;28;20028;-62
2023/05/27 14:02:16;;;;;;;21.23;15.38;;;;;;;;;;5049978;28;20028;-62
2023/05/27 14:04:43;;;;;;;22.27;14.80;;;;;;;;;;5049209;28;20465;-62
2023/05/27 14:07:09;;;;;;;19.65;15.20;;;;;;;;;;5049459;28;20071;-59
2023/05/27 14:09:36;;;;;;;21.55;15.75;;;;;;;;;;5031686;28;20021;-61
2023/05/27 14:12:02;;;;;;;21.65;15.30;;;;;;;;;;5031676;28;20036;-60
2023/05/27 14:14:28;;;;;;;23.10;14.57;;;;;;;;;;5030902;28;20036;-61
2023/05/27 14:16:54;;;;;;;21.73;15.50;;;;;;;;;;5049633;28;20180;-61
2023/05/27 14:19:20;;;;;;;21.40;14.73;;;;;;;;;;5049087;28;20033;-60
2023/05/27 14:21:47;;;;;;;21.73;14.77;;;;;;;;;;5049801;28;20088;-58
2023/05/27 14:24:13;;;;;;;20.75;14.35;;;;;;;;;;5048728;28;20485;-61